Bosporus — V2QY — position and weather

sailwx.info

Track history (hours):
 
Tides and Currents Weather Stations Pressure Air Temp Water Temp Dewpoint Dewpoint Depression Visibility Wind Speed Wind Dir Waves Ship Positions

Bosporus

Last reported at 2016-Jun-30 10:32 UTC. Time now 2016-Jul-01 11:47 UTC.
Position N 40°28' E 001°11'.

Length 100 m; draft 3.9 m.

Type: Cargo ship. MMSI: 304010802.

Date/timePositionNaut miles runAvg speedWind from/ knotsBaromVisibWave heightAir tempDewpointWater temp
2016-Jun-30 10:32N 40°28' E 001°11'12 9.6
2016-Jun-30 09:17N 40°36' E 001°24'7 9.6
2016-Jun-30 08:32N 40°40' E 001°31'10 9.8
2016-Jun-30 07:33N 40°47' E 001°40'1110.1
2016-Jun-30 06:30N 40°54' E 001°51'1010.7
2016-Jun-30 05:32N 41°01' E 002°01'1110.9
2016-Jun-30 04:30N 41°08' E 002°12'1010.9
2016-Jun-30 03:33N 41°15' E 002°23'1110.8
2016-Jun-30 02:30N 41°22' E 002°34'1010.5
2016-Jun-30 01:32N 41°29' E 002°44'1010.2
2016-Jun-30 00:33N 41°36' E 002°54'10 9.5
2016-Jun-29 23:30N 41°42' E 003°04'9 9.5
2016-Jun-29 22:30N 41°49' E 003°14'  
2016-Jun-25 23:29N 40°40' E 001°29'1010.3
2016-Jun-25 22:33N 40°46' E 001°38'1310.4
2016-Jun-25 21:15N 40°55' E 001°52'810.4
2016-Jun-25 20:30N 40°60' E 001°59'1010.5
2016-Jun-25 19:32N 41°07' E 002°09'1110.8
2016-Jun-25 18:32N 41°14' E 002°20'1110.4
2016-Jun-25 17:29N 41°21' E 002°31'1010.2
2016-Jun-25 16:33N 41°27' E 002°41'11 9.9
2016-Jun-25 15:28N 41°34' E 002°51'  
2016-Jun-23 11:19N 43°26' E 004°53'6 7.8
2016-Jun-23 10:32N 43°21' E 004°59'51 9.6
2016-Jun-23 05:12N 42°59' E 006°02'  
2016-Jun-21 00:12N 43°10' E 009°53'6 8.9
2016-Jun-20 23:33N 43°13' E 009°46'9 9.3
2016-Jun-20 22:32N 43°18' E 009°35'9 9.5
2016-Jun-20 21:33N 43°22' E 009°24'10 9.8
2016-Jun-20 20:33N 43°27' E 009°12'9 9.2
2016-Jun-20 19:32N 43°32' E 009°01'9 9.3
2016-Jun-20 18:33N 43°37' E 008°50'9 9.1
2016-Jun-20 17:33N 43°42' E 008°40'9 8.6
2016-Jun-20 16:33N 43°50' E 008°37'10 9.6
2016-Jun-20 15:33N 44°00' E 008°37'9 9.2
2016-Jun-20 14:34N 44°09' E 008°37'9 8.6
2016-Jun-20 13:33N 44°17' E 008°33'3 2.5
2016-Jun-20 12:28N 44°19' E 008°30'  
Track history (hours):
 
Tides and Currents Weather Stations Pressure Air Temp Water Temp Dewpoint Dewpoint Depression Visibility Wind Speed Wind Dir Waves Ship Positions

Bosporus

Last reported at 2016-Jun-30 10:32 UTC. Time now 2016-Jul-01 11:47 UTC.
Position N 40°28' E 001°11'.

Length 100 m; draft 3.9 m.

Type: Cargo ship. MMSI: 304010802.

Date/timePositionNaut miles runAvg speedWind from/ knotsBaromVisibWave heightAir tempDewpointWater temp
2016-Jun-30 10:32N 40°28' E 001°11'12 9.6
2016-Jun-30 09:17N 40°36' E 001°24'7 9.6
2016-Jun-30 08:32N 40°40' E 001°31'10 9.8
2016-Jun-30 07:33N 40°47' E 001°40'1110.1
2016-Jun-30 06:30N 40°54' E 001°51'1010.7
2016-Jun-30 05:32N 41°01' E 002°01'1110.9
2016-Jun-30 04:30N 41°08' E 002°12'1010.9
2016-Jun-30 03:33N 41°15' E 002°23'1110.8
2016-Jun-30 02:30N 41°22' E 002°34'1010.5
2016-Jun-30 01:32N 41°29' E 002°44'1010.2
2016-Jun-30 00:33N 41°36' E 002°54'10 9.5
2016-Jun-29 23:30N 41°42' E 003°04'9 9.5
2016-Jun-29 22:30N 41°49' E 003°14'  
2016-Jun-25 23:29N 40°40' E 001°29'1010.3
2016-Jun-25 22:33N 40°46' E 001°38'1310.4
2016-Jun-25 21:15N 40°55' E 001°52'810.4
2016-Jun-25 20:30N 40°60' E 001°59'1010.5
2016-Jun-25 19:32N 41°07' E 002°09'1110.8
2016-Jun-25 18:32N 41°14' E 002°20'1110.4
2016-Jun-25 17:29N 41°21' E 002°31'1010.2
2016-Jun-25 16:33N 41°27' E 002°41'11 9.9
2016-Jun-25 15:28N 41°34' E 002°51'  
2016-Jun-23 11:19N 43°26' E 004°53'6 7.8
2016-Jun-23 10:32N 43°21' E 004°59'51 9.6
2016-Jun-23 05:12N 42°59' E 006°02'  
2016-Jun-21 00:12N 43°10' E 009°53'6 8.9
2016-Jun-20 23:33N 43°13' E 009°46'9 9.3
2016-Jun-20 22:32N 43°18' E 009°35'9 9.5
2016-Jun-20 21:33N 43°22' E 009°24'10 9.8
2016-Jun-20 20:33N 43°27' E 009°12'9 9.2
2016-Jun-20 19:32N 43°32' E 009°01'9 9.3
2016-Jun-20 18:33N 43°37' E 008°50'9 9.1
2016-Jun-20 17:33N 43°42' E 008°40'9 8.6
2016-Jun-20 16:33N 43°50' E 008°37'10 9.6
2016-Jun-20 15:33N 44°00' E 008°37'9 9.2
2016-Jun-20 14:34N 44°09' E 008°37'9 8.6
2016-Jun-20 13:33N 44°17' E 008°33'3 2.5
2016-Jun-20 12:28N 44°19' E 008°30'  

Dump ship's entire track history